Terminal Aerodrome Forecast
Issued by NWS

Home | Current Version | Previous Version | Text Only | Print | Product List | Glossary On
Versions: 1 2 3 4 5 6 7 8 9 10 11 12 13 14 15 16 17
000
FTUS46 KMTR 171453 AAA
TAFOAK
TAF AMD
KOAK 171453Z 1715/1818 07004KT P6SM SCT007 BKN200
     FM171800 14005KT 6SM HZ FEW010 SCT200
     FM172200 24005KT P6SM SCT200
     FM180300 03004KT P6SM BKN150
     FM181000 09004KT P6SM BKN060=

USA.gov is the U.S. government's official web portal to all federal, state and local government web resources and services.